ADDS TAF Board (Experimental) INFO

IDs: Format: Expanded Condensed

Updated at: 0747 UTC 24 Nov 2014

KBWI - Baltimore-Washington, MD, US

Issued at 0535 UTC 24 Nov 2014
Time0733Z24/08Z24/09Z24/10Z24/11Z24/12Z24/13Z24/14Z24/15Z24/16Z24/17Z24/18Z24/19Z24/20Z
TypeOBSPRVLPRVLPRVLPRVLPRVLPRVLPRVLPRVLPRVLPRVLPRVLPRVLPRVL
VIS92221111>6>6>6>6>6>6
CIG68888888305050505050
CoverOVCOVCOVCOVCOVCOVCOVCOVCOVCBKNBKNBKNBKNBKN
FltCatIFRIFRIFRIFRIFRIFRIFRIFRMVFRVFRVFRVFRVFRVFR
WX--RA BR-RA BR-RA BRBRBRBRBR------------
WDir150150170170180180180180190200200210210210
WSpd1212161613131313131414161616
WGst28--------------------262626
R04/22
XWnd-11-11-11-11-7-7-7-7-5-3-3-1-1-1
XGst-25---------------------1-1-1
HWnd-5-5-12-12-11-11-11-11-12-14-14-16-16-16
HGst-13---------------------26-26-26
R10/28
XWnd-10-10-16-16-13-13-13-13-13-13-13-14-14-14
XGst-23---------------------23-23-23
HWnd77441111-1-4-4-7-7-7
HGst16---------------------11-11-11
R15/33
XWnd-1-1-7-7-8-8-8-8-9-12-12-15-15-15
XGst-3---------------------24-24-24
HWnd1212141411111111988777
HGst28--------------------111111
Raw TAF
KBWI 240535Z 2406/2512 07005KT 2SM RA OVC015 WS020/16050KT
  FM240800 15012KT 2SM RA BR OVC008 WS020/18040KT
  FM240900 17016KT 2SM -RA BR OVC008 WS020/20040KT
  FM241100 18013KT 1SM BR OVC008
  FM241500 19013KT P6SM OVC030
  FM241600 20014KT P6SM BKN050
  FM241800 21016G26KT P6SM BKN050
  FM250100 20011KT P6SM BKN250
  FM250500 24010KT P6SM SCT150
  FM250800 29006KT P6SM SCT150


Raw METAR
KBWI 240733Z 15012G28KT 140V200 9SM BKN006 OVC011 16/14 A2966 RMK AO2 PK WND 17028/0729 RAE0656 P0000
KBWI 240654Z 15013G22KT 10SM -RA SCT006 BKN011 OVC018 15/14 A2968 RMK AO2 SLP049 P0015 T01500139

TAF Board Legend

Hazard VFR MVFR IFR LIFR
Visibility (sm) >5 3≤X≤5 1≤X<3 <1
Ceiling (100 ft) >30 10≤X≤30 5≤X<10 <5
Wind Speed (kt) <10 10≤X<20 20≤X<30 ≥30
Wind Gust (kt) <15 15≤X<25 25≤X<35 ≥35
Weather No Wx Reported VCTS,-TS,-FZRA TS,FZRA +TS,+FZRA


Page loaded:  07:47 UTC  |   11:47 PM Pacific  |   12:47 AM Mountain  |   01:47 AM Central  |   02:47 AM Eastern

 

ADVISORIES

FORECASTS

FORECASTS

OBSERVATIONS

USER TOOLS

ABOUT US